Time;durP1;ratioP1;P1;durP2;ratioP2;P2;SDS_P1;SDS_P2;PMS_P1;PMS_P2;Temp;Humidity;BMP_temperature;BMP_pressure;BME280_temperature;BME280_humidity;BME280_pressure;Samples;Min_cycle;Max_cycle;Signal;HPM_P1;HPM_P2
2021/11/14 00:00:07;;;;;;;;;;;;;;;8.02;59.62;100118.22;4474588;32;20024;-88
2021/11/14 00:02:32;;;;;;;;;;;;;;;7.94;59.62;100121.84;4474081;32;19969;-88
2021/11/14 00:04:57;;;;;;;;;;;;;;;7.86;59.61;100113.34;4487435;32;20011;-87
2021/11/14 00:07:26;;;;;;;;;;;;;;;7.88;59.61;100109.84;4487757;32;27585;-88
2021/11/14 00:09:51;;;;;;;;;;;;;;;7.85;59.61;100109.88;4487632;32;19990;-88
2021/11/14 00:12:16;;;;;;;;;;;;;;;7.86;59.62;100114.19;4474012;32;19976;-87
2021/11/14 00:14:42;;;;;;;;;;;;;;;7.99;59.63;100107.91;4474411;32;20007;-88
2021/11/14 00:17:07;;;;;;;;;;;;;;;7.73;59.60;100106.59;4487674;32;19992;-88
2021/11/14 00:19:32;;;;;;;;;;;;;;;7.81;59.61;100108.22;4474391;32;20025;-88
2021/11/14 00:21:57;;;;;;;;;;;;;;;7.83;59.61;100110.78;4472585;32;31381;-88
2021/11/14 00:24:23;;;;;;;;;;;;;;;7.80;59.61;100110.81;4486995;32;19973;-88
2021/11/14 00:26:48;;;;;;;;;;;;;;;7.72;59.60;100117.84;4488438;31;20049;-88
2021/11/14 00:29:14;;;;;;;;;;;;;;;7.70;59.60;100110.94;4486657;31;30562;-89
2021/11/14 00:31:39;;;;;;;;;;;;;;;7.89;59.62;100114.13;4473856;32;19996;-88
2021/11/14 00:34:07;;;;;;;;;;;;;;;7.70;59.61;100108.37;4474433;32;19995;-89
2021/11/14 00:36:36;;;;;;;;;;;;;;;7.80;59.61;100103.88;4474638;32;20018;-90
2021/11/14 00:39:02;;;;;;;;;;;;;;;7.93;59.62;100096.78;4488083;32;20023;-91
2021/11/14 00:41:27;;;;;;;;;;;;;;;7.85;59.61;100101.25;4486241;32;29445;-91
2021/11/14 00:43:52;;;;;;;;;;;;;;;7.59;59.60;100089.53;4486918;32;25300;-91
2021/11/14 00:46:18;;;;;;;;;;;;;;;7.77;59.60;100092.72;4474075;32;20007;-90
2021/11/14 00:48:43;;;;;;;;;;;;;;;7.60;59.60;100093.84;4487563;32;20328;-92
2021/11/14 00:51:12;;;;;;;;;;;;;;;7.72;59.61;100097.97;4474402;32;20269;-91
2021/11/14 00:53:37;;;;;;;;;;;;;;;7.72;59.61;100089.34;4487560;32;20381;-91
2021/11/14 00:56:02;;;;;;;;;;;;;;;7.69;59.61;100091.09;4473797;32;20000;-90
2021/11/14 00:58:29;;;;;;;;;;;;;;;7.56;59.60;100091.28;4487497;32;19998;-92
2021/11/14 01:00:54;;;;;;;;;;;;;;;7.77;59.60;100100.50;4474235;32;20033;-92
2021/11/14 01:03:20;;;;;;;;;;;;;;;7.61;59.61;100100.72;4487444;32;20020;-92
2021/11/14 01:05:45;;;;;;;;;;;;;;;7.65;59.60;100092.03;4487450;32;20037;-91
2021/11/14 01:08:10;;;;;;;;;;;;;;;7.61;59.61;100090.38;4487424;32;19991;-90
2021/11/14 01:10:37;;;;;;;;;;;;;;;7.76;59.61;100098.78;4474406;32;19985;-91
2021/11/14 01:13:02;;;;;;;;;;;;;;;7.83;59.61;100090.91;4474297;32;19996;-90
2021/11/14 01:15:28;;;;;;;;;;;;;;;7.72;59.61;100082.44;4487499;32;19980;-90
2021/11/14 01:17:53;;;;;;;;;;;;;;;7.66;59.60;100085.13;4487394;32;20001;-90
2021/11/14 01:20:20;;;;;;;;;;;;;;;7.79;59.61;100091.81;4473474;32;20009;-90
2021/11/14 01:22:45;;;;;;;;;;;;;;;7.73;59.61;100096.25;4473967;32;20000;-91
2021/11/14 01:25:11;;;;;;;;;;;;;;;7.92;59.62;100105.44;4487289;32;20051;-91
2021/11/14 01:27:37;;;;;;;;;;;;;;;7.90;59.61;100102.03;4474028;32;19976;-91
2021/11/14 01:30:06;;;;;;;;;;;;;;;7.92;59.62;100102.84;4487273;32;20044;-91
2021/11/14 01:32:31;;;;;;;;;;;;;;;7.97;59.62;100093.28;4487253;32;19993;-90
2021/11/14 01:34:56;;;;;;;;;;;;;;;7.95;59.62;100095.03;4472651;32;32086;-91
2021/11/14 01:37:22;;;;;;;;;;;;;;;8.02;59.62;100102.69;4487124;32;20291;-89
2021/11/14 01:39:47;;;;;;;;;;;;;;;7.75;59.61;100094.47;4474026;32;19991;-91
2021/11/14 01:42:12;;;;;;;;;;;;;;;7.88;59.61;100099.47;4474072;32;20287;-91
2021/11/14 01:44:37;;;;;;;;;;;;;;;7.94;59.62;100093.31;4487016;32;23380;-89
2021/11/14 01:47:03;;;;;;;;;;;;;;;7.76;59.61;100101.37;4488023;32;19981;-91
2021/11/14 01:49:28;;;;;;;;;;;;;;;7.68;59.60;100097.16;4473688;32;19968;-90
2021/11/14 01:51:53;;;;;;;;;;;;;;;7.76;59.60;100096.19;4473425;32;20027;-89
2021/11/14 01:54:19;;;;;;;;;;;;;;;7.72;59.61;100097.13;4486674;32;20036;-90
2021/11/14 01:56:47;;;;;;;;;;;;;;;7.60;59.59;100098.16;4486784;32;20003;-88
2021/11/14 01:59:13;;;;;;;;;;;;;;;7.63;59.60;100100.72;4473483;32;19989;-89
2021/11/14 02:01:38;;;;;;;;;;;;;;;7.49;59.60;100100.91;4486620;32;19995;-87
2021/11/14 02:04:05;;;;;;;;;;;;;;;7.72;59.60;100102.31;4486249;32;20624;-88
2021/11/14 02:06:31;;;;;;;;;;;;;;;7.72;59.60;100113.53;4486660;32;19976;-89
2021/11/14 02:08:56;;;;;;;;;;;;;;;7.63;59.61;100117.12;4473647;32;20026;-89
2021/11/14 02:11:21;;;;;;;;;;;;;;;7.68;59.60;100111.84;4486895;32;20004;-89
2021/11/14 02:13:47;;;;;;;;;;;;;;;7.75;59.61;100110.88;4473512;32;19992;-88
2021/11/14 02:16:13;;;;;;;;;;;;;;;7.60;59.60;100116.31;4473268;32;19973;-89
2021/11/14 02:18:38;;;;;;;;;;;;;;;7.75;59.60;100107.44;4473401;32;19994;-89
2021/11/14 02:21:03;;;;;;;;;;;;;;;7.58;59.60;100111.16;4486353;32;21079;-89
2021/11/14 02:23:29;;;;;;;;;;;;;;;7.72;59.60;100102.31;4486206;32;20033;-89
2021/11/14 02:25:54;;;;;;;;;;;;;;;7.55;59.60;100103.38;4473445;32;20032;-88
2021/11/14 02:28:19;;;;;;;;;;;;;;;7.37;59.58;100098.47;4473595;32;20004;-89
2021/11/14 02:30:45;;;;;;;;;;;;;;;7.32;59.58;100092.50;4486234;32;19995;-88
2021/11/14 02:33:10;;;;;;;;;;;;;;;7.48;59.60;100096.59;4473371;32;20015;-89
2021/11/14 02:35:35;;;;;;;;;;;;;;;7.49;59.60;100105.22;4473027;32;19973;-88
2021/11/14 02:38:01;;;;;;;;;;;;;;;7.51;59.60;100109.50;4485154;32;20020;-89
2021/11/14 02:40:26;;;;;;;;;;;;;;;7.40;59.59;100103.62;4471501;32;20046;-87
2021/11/14 02:42:51;;;;;;;;;;;;;;;7.72;59.61;100102.31;4484881;32;25822;-88
2021/11/14 02:45:25;;;;;;;;;;;;;;;7.73;59.60;100104.00;4472934;32;20007;-85
2021/11/14 02:47:50;;;;;;;;;;;;;;;7.70;59.60;100113.53;4474048;32;20344;-87
2021/11/14 02:50:16;;;;;;;;;;;;;;;7.83;59.61;100115.97;4487897;32;20048;-87
2021/11/14 02:52:41;;;;;;;;;;;;;;;7.79;59.61;100120.31;4489079;31;19977;-88
2021/11/14 02:55:07;;;;;;;;;;;;;;;7.94;59.62;100124.44;4487200;32;32653;-88
2021/11/14 02:57:32;;;;;;;;;;;;;;;8.04;59.62;100118.19;4474259;32;19999;-87
2021/11/14 02:59:57;;;;;;;;;;;;;;;7.97;59.62;100121.78;4474714;32;19996;-87
2021/11/14 03:02:23;;;;;;;;;;;;;;;8.02;59.62;100117.38;4474166;32;19980;-86
2021/11/14 03:04:48;;;;;;;;;;;;;;;8.05;59.62;100112.16;4486024;32;27094;-90
2021/11/14 03:07:13;;;;;;;;;;;;;;;8.00;59.62;100108.78;4474269;32;20032;-87
2021/11/14 03:09:38;;;;;;;;;;;;;;;8.06;59.62;100111.28;4473538;32;20253;-86
2021/11/14 03:12:04;;;;;;;;;;;;;;;8.09;59.62;100116.41;4473234;32;20008;-87
2021/11/14 03:14:29;;;;;;;;;;;;;;;8.08;59.63;100119.03;4487897;31;19984;-86
2021/11/14 03:16:54;;;;;;;;;;;;;;;7.90;59.61;100118.44;4486761;32;23297;-86
2021/11/14 03:19:20;;;;;;;;;;;;;;;7.83;59.61;100122.00;4488119;32;20000;-87
2021/11/14 03:21:45;;;;;;;;;;;;;;;7.94;59.62;100124.44;4473880;32;20003;-87
2021/11/14 03:24:10;;;;;;;;;;;;;;;8.02;59.62;100133.78;4486983;32;20470;-85
2021/11/14 03:26:36;;;;;;;;;;;;;;;8.10;59.62;100132.84;4486898;32;20358;-86
2021/11/14 03:29:01;;;;;;;;;;;;;;;7.99;59.63;100126.06;4487202;31;20000;-85
2021/11/14 03:31:27;;;;;;;;;;;;;;;7.88;59.61;100127.12;4473403;32;20000;-86
2021/11/14 03:33:52;;;;;;;;;;;;;;;8.01;59.63;100139.00;4486929;32;19998;-87
2021/11/14 03:36:18;;;;;;;;;;;;;;;7.94;59.62;100143.44;4487016;32;20016;-87
2021/11/14 03:38:48;;;;;;;;;;;;;;;7.95;59.62;100141.69;4473925;32;19996;-88
2021/11/14 03:41:14;;;;;;;;;;;;;;;8.18;59.63;100129.22;4473898;32;20026;-87
2021/11/14 03:43:39;;;;;;;;;;;;;;;8.24;59.63;100128.25;4486579;32;20035;-87
2021/11/14 03:46:05;;;;;;;;;;;;;;;8.13;59.63;100131.03;4488080;32;19984;-88
2021/11/14 03:48:30;;;;;;;;;;;;;;;8.15;59.63;100131.87;4474437;32;20035;-87
2021/11/14 03:50:55;;;;;;;;;;;;;;;8.10;59.62;100125.06;4474240;32;20029;-88
2021/11/14 03:53:21;;;;;;;;;;;;;;;8.11;59.63;100127.63;4486900;32;33731;-87
2021/11/14 03:55:46;;;;;;;;;;;;;;;8.30;59.64;100131.63;4487559;32;20004;-87
2021/11/14 03:58:11;;;;;;;;;;;;;;;8.25;59.64;100130.81;4487531;32;20313;-85
2021/11/14 04:00:40;;;;;;;;;;;;;;;8.40;59.64;100139.28;4474172;32;20355;-87
2021/11/14 04:03:05;;;;;;;;;;;;;;;8.51;59.64;100139.94;4473676;32;19991;-85
2021/11/14 04:05:31;;;;;;;;;;;;;;;8.31;59.64;100135.94;4487001;32;19981;-85
2021/11/14 04:07:59;;;;;;;;;;;;;;;8.49;59.65;100139.09;4473371;32;19984;-85
2021/11/14 04:10:24;;;;;;;;;;;;;;;8.33;59.64;100133.31;4474159;32;20005;-86
2021/11/14 04:12:50;;;;;;;;;;;;;;;8.43;59.64;100137.47;4474211;32;19994;-85
2021/11/14 04:15:15;;;;;;;;;;;;;;;8.56;59.65;100131.22;4473579;32;19991;-86
2021/11/14 04:17:40;;;;;;;;;;;;;;;8.58;59.65;100126.00;4487382;32;20035;-86
2021/11/14 04:20:06;;;;;;;;;;;;;;;8.59;59.66;100125.97;4487394;32;20007;-85
2021/11/14 04:22:31;;;;;;;;;;;;;;;8.71;59.66;100118.81;4486963;32;19964;-86
2021/11/14 04:24:56;;;;;;;;;;;;;;;8.60;59.66;100129.41;4473314;32;19981;-83
2021/11/14 04:27:22;;;;;;;;;;;;;;;8.61;59.65;100133.72;4485171;32;19992;-84
2021/11/14 04:29:47;;;;;;;;;;;;;;;8.70;59.66;100138.72;4484867;31;20760;-84
2021/11/14 04:32:12;;;;;;;;;;;;;;;8.73;59.65;100138.66;4485032;32;20314;-84
2021/11/14 04:34:39;;;;;;;;;;;;;;;8.68;59.66;100137.91;4471801;32;19985;-84
2021/11/14 04:37:05;;;;;;;;;;;;;;;8.80;59.66;100134.25;4486270;31;20007;-83
2021/11/14 04:39:30;;;;;;;;;;;;;;;8.70;59.66;100130.09;4484425;32;22548;-84
2021/11/14 04:41:55;;;;;;;;;;;;;;;8.64;59.66;100138.00;4484413;32;22694;-84
2021/11/14 04:44:20;;;;;;;;;;;;;;;8.69;59.66;100134.44;4472259;32;20016;-86
2021/11/14 04:46:45;;;;;;;;;;;;;;;8.66;59.65;100131.03;4472085;32;20000;-86
2021/11/14 04:49:11;;;;;;;;;;;;;;;8.50;59.64;100130.44;4472701;32;20309;-87
2021/11/14 04:51:36;;;;;;;;;;;;;;;8.49;59.64;100131.31;4484993;32;27601;-86
2021/11/14 04:54:01;;;;;;;;;;;;;;;8.35;59.64;100123.81;4472761;32;20037;-87
2021/11/14 04:56:28;;;;;;;;;;;;;;;8.17;59.63;100118.87;4472210;32;24875;-85
2021/11/14 04:58:53;;;;;;;;;;;;;;;8.01;59.63;100132.06;4473073;32;19992;-86
2021/11/14 05:01:18;;;;;;;;;;;;;;;8.00;59.62;100130.38;4484546;32;20814;-86
2021/11/14 05:03:43;;;;;;;;;;;;;;;8.20;59.63;100139.56;4471097;32;24155;-84
2021/11/14 05:06:09;;;;;;;;;;;;;;;8.31;59.64;100138.53;4484731;32;19980;-86
2021/11/14 05:08:35;;;;;;;;;;;;;;;8.40;59.64;100147.91;4485688;31;19999;-86
2021/11/14 05:11:00;;;;;;;;;;;;;;;8.36;59.63;100153.19;4484359;32;20020;-85
2021/11/14 05:13:26;;;;;;;;;;;;;;;8.42;59.64;100155.66;4471065;32;19995;-86
2021/11/14 05:15:51;;;;;;;;;;;;;;;8.46;59.65;100155.59;4486615;32;20034;-86
2021/11/14 05:18:17;;;;;;;;;;;;;;;8.61;59.65;100155.34;4485228;32;20028;-84
2021/11/14 05:20:42;;;;;;;;;;;;;;;8.42;59.64;100163.44;4485891;31;19985;-84
2021/11/14 05:23:08;;;;;;;;;;;;;;;8.40;59.64;100158.28;4484890;32;19972;-85
2021/11/14 05:25:34;;;;;;;;;;;;;;;8.35;59.63;100160.13;4484800;32;20312;-85
2021/11/14 05:27:59;;;;;;;;;;;;;;;8.37;59.63;100160.09;4471752;32;19996;-85
2021/11/14 05:30:24;;;;;;;;;;;;;;;8.50;59.64;100162.44;4484741;32;19997;-87
2021/11/14 05:32:50;;;;;;;;;;;;;;;8.52;59.64;100167.62;4486646;32;20019;-87
2021/11/14 05:35:15;;;;;;;;;;;;;;;8.50;59.65;100167.62;4472711;32;23457;-86
2021/11/14 05:37:40;;;;;;;;;;;;;;;8.41;59.64;100172.97;4485785;32;20039;-86
2021/11/14 05:40:06;;;;;;;;;;;;;;;8.21;59.63;100172.41;4472497;32;19972;-87
2021/11/14 05:42:31;;;;;;;;;;;;;;;8.34;59.64;100170.50;4487017;31;19975;-86
2021/11/14 05:44:58;;;;;;;;;;;;;;;8.40;59.64;100168.66;4473374;32;19985;-86
2021/11/14 05:47:23;;;;;;;;;;;;;;;8.28;59.64;100166.22;4473839;32;20008;-89
2021/11/14 05:49:48;;;;;;;;;;;;;;;8.34;59.64;100163.59;4473323;32;34176;-89
2021/11/14 05:52:14;;;;;;;;;;;;;;;8.16;59.63;100167.28;4473313;32;27634;-89
2021/11/14 05:54:39;;;;;;;;;;;;;;;8.33;59.64;100169.63;4486418;32;24351;-88
2021/11/14 05:57:04;;;;;;;;;;;;;;;8.37;59.63;100170.47;4472587;32;29884;-85
2021/11/14 06:02:20;;;;;;;;;;;;;;;8.47;59.64;100183.25;4486234;32;20235;-86
2021/11/14 06:07:30;;;;;;;;;;;;;;;8.49;59.65;100191.00;4486369;32;19984;-86
2021/11/14 06:10:00;;;;;;;;;;;;;;;8.52;59.66;100191.84;4473521;32;20267;-88
2021/11/14 06:12:26;;;;;;;;;;;;;;;8.67;59.66;100193.28;4486823;32;20316;-89
2021/11/14 06:14:51;;;;;;;;;;;;;;;8.57;59.65;100209.91;4473335;32;20016;-87
2021/11/14 06:17:20;;;;;;;;;;;;;;;8.60;59.66;100209.84;4486478;32;19988;-88
2021/11/14 06:19:45;;;;;;;;;;;;;;;8.51;59.64;100222.97;4486281;32;19987;-87
2021/11/14 06:22:10;;;;;;;;;;;;;;;8.73;59.66;100218.28;4485719;32;20028;-87
2021/11/14 06:24:36;;;;;;;;;;;;;;;8.52;59.66;100216.91;4472715;32;19989;-86
2021/11/14 06:27:01;;;;;;;;;;;;;;;8.60;59.66;100215.91;4486424;32;19988;-87
2021/11/14 06:29:26;;;;;;;;;;;;;;;8.74;59.67;100213.06;4486347;32;20306;-87
2021/11/14 06:31:51;;;;;;;;;;;;;;;8.65;59.65;100218.41;4484540;32;19996;-86
2021/11/14 06:34:17;;;;;;;;;;;;;;;8.53;59.65;100219.50;4470965;32;27382;-85
2021/11/14 06:36:42;;;;;;;;;;;;;;;8.78;59.66;100227.72;4484352;32;23699;-86
2021/11/14 06:39:07;;;;;;;;;;;;;;;8.69;59.66;100227.84;4484213;32;26795;-86
2021/11/14 06:41:32;;;;;;;;;;;;;;;8.81;59.66;100219.03;4484899;32;20094;-86
2021/11/14 06:43:58;;;;;;;;;;;;;;;8.89;59.68;100225.78;4484021;32;28749;-86
2021/11/14 06:46:23;;;;;;;;;;;;;;;8.86;59.67;100228.44;4484510;32;20069;-87
2021/11/14 06:48:48;;;;;;;;;;;;;;;8.93;59.67;100227.44;4483769;32;24649;-85
2021/11/14 06:51:13;;;;;;;;;;;;;;;9.01;59.68;100240.31;4470562;32;25857;-85
2021/11/14 06:53:38;;;;;;;;;;;;;;;9.20;59.69;100243.41;4469596;32;26547;-86
2021/11/14 06:56:04;;;;;;;;;;;;;;;9.22;59.69;100237.28;4483462;32;19984;-86
2021/11/14 06:58:29;;;;;;;;;;;;;;;9.19;59.68;100241.69;4483713;32;20360;-86
2021/11/14 07:00:54;;;;;;;;;;;;;;;9.16;59.68;100241.75;4485247;32;19999;-88
2021/11/14 07:03:20;;;;;;;;;;;;;;;9.26;59.69;100242.44;4485800;32;19995;-88
2021/11/14 07:05:45;;;;;;;;;;;;;;;9.30;59.69;100239.75;4486865;31;19977;-88
2021/11/14 07:08:10;;;;;;;;;;;;;;;9.36;59.70;100237.03;4472508;32;20323;-88
2021/11/14 07:10:36;;;;;;;;;;;;;;;9.32;59.69;100237.13;4485928;32;20003;-88
2021/11/14 07:13:01;;;;;;;;;;;;;;;9.39;59.69;100236.97;4471871;32;28478;-89
2021/11/14 07:15:26;;;;;;;;;;;;;;;9.58;59.71;100240.06;4472461;32;19988;-88
2021/11/14 07:17:51;;;;;;;;;;;;;;;9.77;59.71;100231.00;4472439;32;20365;-89
2021/11/14 07:20:17;;;;;;;;;;;;;;;9.60;59.71;100229.66;4484883;32;23646;-87
2021/11/14 07:22:44;;;;;;;;;;;;;;;9.73;59.72;100233.72;4485343;32;19981;-88
2021/11/14 07:25:14;;;;;;;;;;;;;;;9.58;59.71;100236.63;4485703;32;19992;-89
2021/11/14 07:27:39;;;;;;;;;;;;;;;9.70;59.71;100239.84;4473303;31;19976;-90
2021/11/14 07:30:05;;;;;;;;;;;;;;;9.77;59.72;100232.75;4485688;32;19976;-91
2021/11/14 07:32:30;;;;;;;;;;;;;;;9.69;59.71;100242.44;4473790;32;20041;-90
2021/11/14 07:34:55;;;;;;;;;;;;;;;9.82;59.72;100236.09;4487245;32;21887;-89
2021/11/14 07:37:20;;;;;;;;;;;;;;;9.69;59.71;100245.03;4487147;32;22632;-87
2021/11/14 07:39:46;;;;;;;;;;;;;;;9.87;59.73;100244.66;4487981;32;20031;-88
2021/11/14 07:42:11;;;;;;;;;;;;;;;9.90;59.72;100238.53;4487055;32;29680;-89
2021/11/14 07:44:36;;;;;;;;;;;;;;;9.73;59.72;100246.72;4487050;32;29975;-88
2021/11/14 07:47:01;;;;;;;;;;;;;;;9.81;59.72;100235.25;4489004;31;19977;-88
2021/11/14 07:49:27;;;;;;;;;;;;;;;9.72;59.71;100232.00;4474503;32;20005;-88
2021/11/14 07:51:52;;;;;;;;;;;;;;;9.91;59.72;100246.31;4487527;32;20037;-88
2021/11/14 07:54:17;;;;;;;;;;;;;;;9.73;59.72;100244.97;4488584;31;19997;-88
2021/11/14 07:56:43;;;;;;;;;;;;;;;9.96;59.73;100241.88;4474470;32;19979;-88
2021/11/14 07:59:09;;;;;;;;;;;;;;;10.14;59.73;100236.25;4487150;32;19984;-88
2021/11/14 08:01:34;;;;;;;;;;;;;;;10.04;59.73;100239.97;4473892;32;20199;-88
2021/11/14 08:03:59;;;;;;;;;;;;;;;9.95;59.73;100244.53;4474026;32;19989;-88
2021/11/14 08:06:24;;;;;;;;;;;;;;;9.81;59.72;100240.47;4487069;32;19972;-87
2021/11/14 08:08:50;;;;;;;;;;;;;;;9.87;59.72;100243.81;4486664;32;33309;-88
2021/11/14 08:11:15;;;;;;;;;;;;;;;9.94;59.73;100248.00;4487312;32;19985;-88
2021/11/14 08:13:41;;;;;;;;;;;;;;;9.95;59.73;100250.59;4487633;32;20084;-89
2021/11/14 08:16:06;;;;;;;;;;;;;;;10.22;59.74;100251.75;4486275;32;20288;-88
2021/11/14 08:18:32;;;;;;;;;;;;;;;10.15;59.74;100252.72;4486738;32;27401;-88
2021/11/14 08:20:57;;;;;;;;;;;;;;;10.01;59.72;100258.25;4487344;32;19981;-88
2021/11/14 08:23:22;;;;;;;;;;;;;;;10.05;59.73;100246.03;4474548;32;25674;-89
2021/11/14 08:25:47;;;;;;;;;;;;;;;10.20;59.74;100250.03;4487875;32;20587;-88
2021/11/14 08:28:13;;;;;;;;;;;;;;;10.22;59.74;100254.34;4474022;32;20006;-86
2021/11/14 08:30:39;;;;;;;;;;;;;;;10.16;59.73;100262.22;4487338;32;20245;-88
2021/11/14 08:33:04;;;;;;;;;;;;;;;10.20;59.74;100261.31;4473889;32;25723;-88
2021/11/14 08:35:29;;;;;;;;;;;;;;;10.38;59.75;100260.91;4487083;32;19972;-88
2021/11/14 08:37:57;;;;;;;;;;;;;;;10.52;59.75;100255.38;4473701;32;20328;-88
2021/11/14 08:40:22;;;;;;;;;;;;;;;10.49;59.76;100265.00;4474427;32;19977;-87
2021/11/14 08:42:47;;;;;;;;;;;;;;;10.49;59.76;100268.47;4473298;32;20265;-88
2021/11/14 08:45:13;;;;;;;;;;;;;;;10.62;59.76;100264.66;4473449;32;20257;-88
2021/11/14 08:47:38;;;;;;;;;;;;;;;10.74;59.77;100268.75;4487245;32;20055;-87
2021/11/14 08:50:03;;;;;;;;;;;;;;;10.70;59.78;100272.31;4486514;32;31648;-87
2021/11/14 08:52:29;;;;;;;;;;;;;;;10.60;59.76;100273.41;4488064;32;19980;-88
2021/11/14 08:54:54;;;;;;;;;;;;;;;10.76;59.77;100280.81;4474379;32;19996;-88
2021/11/14 08:57:19;;;;;;;;;;;;;;;11.03;59.79;100283.63;4487322;32;19977;-89
2021/11/14 08:59:45;;;;;;;;;;;;;;;10.90;59.78;100288.31;4488618;31;19992;-88
2021/11/14 09:02:10;;;;;;;;;;;;;;;11.20;59.79;100293.63;4487074;32;20025;-87
2021/11/14 09:04:36;;;;;;;;;;;;;;;11.07;59.79;100293.94;4473765;32;19972;-89
2021/11/14 09:07:01;;;;;;;;;;;;;;;11.26;59.80;100293.47;4474035;32;20045;-88
2021/11/14 09:09:26;;;;;;;;;;;;;;;11.27;59.80;100289.97;4486829;32;20010;-85
2021/11/14 09:11:52;;;;;;;;;;;;;;;11.40;59.81;100303.53;4485146;32;19989;-86
2021/11/14 09:14:19;;;;;;;;;;;;;;;11.45;59.80;100294.69;4485723;32;20016;-85
2021/11/14 09:16:44;;;;;;;;;;;;;;;11.49;59.81;100295.47;4472895;32;20007;-87
2021/11/14 09:19:09;;;;;;;;;;;;;;;11.86;59.83;100287.53;4474370;32;19992;-88
2021/11/14 09:21:35;;;;;;;;;;;;;;;11.72;59.82;100287.00;4474168;32;20108;-95
2021/11/14 09:24:01;;;;;;;;;;;;;;;11.81;59.82;100286.78;4474247;32;20020;-90
2021/11/14 09:26:26;;;;;;;;;;;;;;;11.84;59.83;100287.56;4487174;32;19983;-89
2021/11/14 09:28:51;;;;;;;;;;;;;;;11.91;59.84;100285.63;4473244;32;34707;-90
2021/11/14 09:31:16;;;;;;;;;;;;;;;11.91;59.84;100283.03;4474135;32;20024;-90
2021/11/14 09:33:42;;;;;;;;;;;;;;;11.98;59.84;100282.78;4487335;32;20446;-91
2021/11/14 09:36:07;;;;;;;;;;;;;;;12.09;59.84;100285.09;4487324;32;19977;-90
2021/11/14 09:38:33;;;;;;;;;;;;;;;12.19;59.84;100288.28;4473926;32;20003;-91
2021/11/14 09:40:58;;;;;;;;;;;;;;;12.35;59.85;100276.47;4474081;32;20270;-90
2021/11/14 09:43:24;;;;;;;;;;;;;;;12.37;59.86;100279.91;4474444;32;20598;-91
2021/11/14 09:45:52;;;;;;;;;;;;;;;12.42;59.86;100279.75;4473144;32;27122;-88
2021/11/14 09:48:18;;;;;;;;;;;;;;;12.51;59.87;100288.13;4473712;32;19957;-90
2021/11/14 09:50:43;;;;;;;;;;;;;;;12.52;59.87;100274.16;4487362;32;20003;-90
2021/11/14 09:53:08;;;;;;;;;;;;;;;12.45;59.86;100282.25;4473722;32;19977;-90
2021/11/14 09:55:37;;;;;;;;;;;;;;;12.55;59.87;100284.56;4486215;32;20013;-89
2021/11/14 09:58:05;;;;;;;;;;;;;;;12.76;59.88;100274.28;4486660;32;20088;-90
2021/11/14 10:00:31;;;;;;;;;;;;;;;12.58;59.86;100278.38;4474072;32;20007;-90
2021/11/14 10:02:56;;;;;;;;;;;;;;;12.89;59.89;100276.47;4473442;32;19972;-91
2021/11/14 10:05:21;;;;;;;;;;;;;;;13.10;59.89;100267.06;4473702;32;20344;-90
2021/11/14 10:07:56;;;;;;;;;;;;;;;13.20;59.91;100265.84;4474176;32;19992;-90
2021/11/14 10:10:23;;;;;;;;;;;;;;;13.35;59.91;100261.88;4473411;32;20704;-91
2021/11/14 10:12:48;;;;;;;;;;;;;;;13.33;59.91;100262.81;4473498;32;19959;-90
2021/11/14 10:15:14;;;;;;;;;;;;;;;13.49;59.93;100272.72;4486827;32;19997;-90
2021/11/14 10:17:43;;;;;;;;;;;;;;;13.61;59.92;100260.94;4485594;32;19977;-89
2021/11/14 10:20:11;;;;;;;;;;;;;;;13.65;59.92;100251.22;4474491;32;19996;-90
2021/11/14 10:22:38;;;;;;;;;;;;;;;13.35;59.91;100256.63;4487363;32;20765;-89
2021/11/14 10:25:04;;;;;;;;;;;;;;;13.56;59.92;100251.56;4473824;32;19984;-90
2021/11/14 10:27:29;;;;;;;;;;;;;;;13.47;59.91;100258.81;4473651;32;19991;-91
2021/11/14 10:29:54;;;;;;;;;;;;;;;12.96;59.88;100247.50;4473515;32;20012;-91
2021/11/14 10:32:20;;;;;;;;;;;;;;;13.20;59.91;100255.41;4486318;32;20302;-90
2021/11/14 10:34:48;;;;;;;;;;;;;;;13.43;59.92;100258.97;4473480;32;19953;-90
2021/11/14 10:37:13;;;;;;;;;;;;;;;13.55;59.92;100257.69;4473026;32;20044;-93
2021/11/14 10:39:41;;;;;;;;;;;;;;;13.59;59.93;100256.66;4473726;32;20000;-93
2021/11/14 10:42:10;;;;;;;;;;;;;;;13.87;59.93;100251.28;4473752;32;19983;-92
2021/11/14 10:44:43;;;;;;;;;;;;;;;13.81;59.94;100258.44;4473527;32;20325;-93
2021/11/14 10:47:10;;;;;;;;;;;;;;;14.00;59.94;100252.53;4473331;32;20345;-92
2021/11/14 10:49:35;;;;;;;;;;;;;;;13.95;59.94;100252.66;4487812;32;19980;-90
2021/11/14 10:52:01;;;;;;;;;;;;;;;14.00;59.95;100250.75;4485872;32;20014;-90
2021/11/14 10:54:26;;;;;;;;;;;;;;;14.06;59.95;100254.91;4486128;32;20016;-91
2021/11/14 10:56:59;;;;;;;;;;;;;;;14.26;59.96;100254.13;4485782;32;20001;-92
2021/11/14 10:59:24;;;;;;;;;;;;;;;14.18;59.96;100249.19;4472849;32;20045;-91
2021/11/14 11:01:51;;;;;;;;;;;;;;;14.09;59.95;100249.53;4472329;32;22390;-92
2021/11/14 11:04:16;;;;;;;;;;;;;;;14.18;59.96;100240.47;4486435;32;20011;-91
2021/11/14 11:06:42;;;;;;;;;;;;;;;14.35;59.97;100232.81;4473168;32;20039;-90
2021/11/14 11:09:07;;;;;;;;;;;;;;;14.36;59.97;100230.13;4474910;32;19988;-90
2021/11/14 11:11:54;;;;;;;;;;;;;;;14.49;59.98;100225.31;4475105;32;20246;-90
2021/11/14 11:14:25;;;;;;;;;;;;;;;14.59;59.98;100223.16;4486189;32;20574;-89
2021/11/14 11:16:51;;;;;;;;;;;;;;;14.67;59.99;100227.19;4474407;32;20574;-90
2021/11/14 11:19:16;;;;;;;;;;;;;;;14.55;59.97;100222.44;4486408;32;33705;-89
2021/11/14 11:21:45;;;;;;;;;;;;;;;14.49;59.98;100224.44;4474144;32;20421;-90
2021/11/14 11:24:11;;;;;;;;;;;;;;;14.50;59.98;100221.75;4474818;32;19999;-90
2021/11/14 11:26:37;;;;;;;;;;;;;;;14.78;59.98;100221.47;4487666;32;19992;-90
2021/11/14 11:29:12;;;;;;;;;;;;;;;14.92;59.99;100219.16;4474701;32;20006;-91
2021/11/14 11:31:37;;;;;;;;;;;;;;;15.08;60.00;100226.34;4487828;32;20360;-90
2021/11/14 11:34:02;;;;;;;;;;;;;;;15.01;60.00;100216.13;4487389;32;22729;-89
2021/11/14 11:36:28;;;;;;;;;;;;;;;15.11;60.01;100213.94;4474688;32;20028;-91
2021/11/14 11:38:54;;;;;;;;;;;;;;;14.97;60.00;100214.56;4474130;32;20375;-88
2021/11/14 11:41:19;;;;;;;;;;;;;;;15.05;60.00;100224.69;4484926;32;20017;-90
2021/11/14 11:43:44;;;;;;;;;;;;;;;14.98;60.00;100218.03;4486577;32;25191;-89
2021/11/14 11:46:15;;;;;;;;;;;;;;;14.92;60.00;100223.53;4487780;32;20014;-90
2021/11/14 11:48:41;;;;;;;;;;;;;;;14.98;60.00;100223.25;4474535;32;19993;-90
2021/11/14 11:51:14;;;;;;;;;;;;;;;14.96;60.00;100219.87;4487498;32;19960;-90
2021/11/14 11:53:39;;;;;;;;;;;;;;;14.98;60.00;100221.50;4487559;32;19990;-89
2021/11/14 11:56:08;;;;;;;;;;;;;;;14.90;59.99;100223.56;4474540;32;19985;-89
2021/11/14 11:58:40;;;;;;;;;;;;;;;14.97;60.00;100221.56;4487714;32;20014;-89
2021/11/14 12:01:06;;;;;;;;;;;;;;;14.74;59.99;100219.91;4474555;32;19992;-89
2021/11/14 12:03:32;;;;;;;;;;;;;;;14.48;59.97;100222.75;4487743;32;20011;-90
2021/11/14 12:05:57;;;;;;;;;;;;;;;14.55;59.98;100218.94;4485616;32;20332;-90
2021/11/14 12:08:33;;;;;;;;;;;;;;;14.48;59.97;100228.00;4474132;32;20031;-87
2021/11/14 12:10:58;;;;;;;;;;;;;;;14.53;59.98;100229.50;4473940;32;20068;-87
2021/11/14 12:13:27;;;;;;;;;;;;;;;14.58;59.98;100230.16;4487062;32;19981;-90
2021/11/14 12:15:57;;;;;;;;;;;;;;;14.60;59.98;100232.72;4474015;32;20859;-90
2021/11/14 12:18:23;;;;;;;;;;;;;;;14.81;59.99;100236.22;4473555;32;20025;-90
2021/11/14 12:20:54;;;;;;;;;;;;;;;14.72;59.99;100237.47;4473336;32;23591;-88
2021/11/14 12:23:27;;;;;;;;;;;;;;;14.74;59.99;100238.25;4487390;32;19980;-91
2021/11/14 12:25:55;;;;;;;;;;;;;;;14.54;59.98;100241.69;4474145;32;19999;-88
2021/11/14 12:28:20;;;;;;;;;;;;;;;14.63;59.97;100237.81;4487027;32;20717;-89
2021/11/14 12:30:52;;;;;;;;;;;;;;;14.56;59.98;100241.63;4473940;32;19981;-87
2021/11/14 12:33:21;;;;;;;;;;;;;;;14.58;59.98;100239.78;4486867;32;19976;-89
2021/11/14 12:35:47;;;;;;;;;;;;;;;14.38;59.97;100253.63;4474345;32;20321;-89
2021/11/14 12:38:13;;;;;;;;;;;;;;;14.40;59.97;100254.44;4473934;32;20002;-91
2021/11/14 12:40:45;;;;;;;;;;;;;;;14.47;59.98;100250.72;4474188;32;19948;-91